createdAt,value
2018-12-20T00:01:31.708Z,99555.80
2018-12-20T00:04:08.410Z,99607.58
2018-12-20T00:06:43.410Z,99601.19
2018-12-20T00:09:16.480Z,99598.74
2018-12-20T00:11:50.128Z,99599.53
2018-12-20T00:14:29.912Z,99597.97
2018-12-20T00:17:09.546Z,99601.64
2018-12-20T00:19:43.132Z,99600.64
2018-12-20T00:22:17.177Z,99597.27
2018-12-20T00:24:51.563Z,99604.50
2018-12-20T00:27:27.724Z,99604.13
2018-12-20T00:30:00.955Z,99607.20
2018-12-20T00:32:35.481Z,99612.54
2018-12-20T00:35:08.822Z,99619.42
2018-12-20T00:37:42.966Z,99608.89
2018-12-20T00:40:23.485Z,99614.47
2018-12-20T00:43:00.607Z,99609.53
2018-12-20T00:45:34.876Z,99612.16
2018-12-20T00:48:10.476Z,99482.82
2018-12-20T00:50:50.540Z,99588.41
2018-12-20T00:53:23.493Z,99599.06
2018-12-20T00:56:06.846Z,99588.75
2018-12-20T00:58:43.155Z,99598.77
2018-12-20T01:01:20.166Z,99594.83
2018-12-20T01:03:56.248Z,99596.35
2018-12-20T01:06:33.526Z,99598.83
2018-12-20T01:09:09.050Z,99603.50
2018-12-20T01:11:44.214Z,99611.83
2018-12-20T01:14:23.095Z,99617.67
2018-12-20T01:16:58.612Z,99628.81
2018-12-20T01:19:41.794Z,99630.45
2018-12-20T01:22:13.740Z,99624.12
2018-12-20T01:24:46.582Z,99619.63
2018-12-20T01:27:21.672Z,99627.13
2018-12-20T01:29:56.370Z,99620.63
2018-12-20T01:32:30.955Z,99619.83
2018-12-20T01:35:04.745Z,99619.48
2018-12-20T01:37:39.871Z,99621.31
2018-12-20T01:40:16.022Z,99634.12
2018-12-20T01:42:53.558Z,99637.79
2018-12-20T01:45:30.673Z,99633.48
2018-12-20T01:48:08.791Z,99646.78
2018-12-20T01:50:47.327Z,99650.63
2018-12-20T01:53:23.420Z,99647.45
2018-12-20T01:55:56.454Z,99644.45
2018-12-20T01:58:30.585Z,99634.63
2018-12-20T02:01:04.087Z,99639.12
2018-12-20T02:03:37.445Z,99650.77
2018-12-20T02:06:10.443Z,99636.76
2018-12-20T02:08:46.612Z,99632.61
2018-12-20T02:11:21.818Z,99632.07
2018-12-20T02:13:55.900Z,99639.61
2018-12-20T02:16:33.475Z,99633.43
2018-12-20T02:19:12.673Z,99639.56
2018-12-20T02:21:49.279Z,99637.73
2018-12-20T02:24:25.091Z,99636.72
2018-12-20T02:27:11.162Z,99629.44
2018-12-20T02:29:48.470Z,99627.58
2018-12-20T02:32:23.705Z,99633.30
2018-12-20T02:35:00.171Z,99618.82
2018-12-20T02:37:35.693Z,99624.95
2018-12-20T02:40:11.422Z,99623.71
2018-12-20T02:42:46.200Z,99629.83
2018-12-20T02:45:28.589Z,99623.20
2018-12-20T02:47:59.640Z,99607.86
2018-12-20T02:50:37.322Z,99610.58
2018-12-20T02:53:13.092Z,99617.82
2018-12-20T02:55:52.122Z,99610.52
2018-12-20T02:58:26.748Z,99607.92
2018-12-20T03:01:05.597Z,99609.69
2018-12-20T03:03:41.451Z,99602.67
2018-12-20T03:06:17.010Z,99605.94
2018-12-20T03:08:49.100Z,99604.44
2018-12-20T03:11:24.934Z,99616.09
2018-12-20T03:13:57.469Z,99606.75
2018-12-20T03:16:34.721Z,99597.49
2018-12-20T03:19:08.424Z,99595.45
2018-12-20T03:21:41.715Z,99597.04
2018-12-20T03:24:19.712Z,99592.56
2018-12-20T03:26:52.615Z,99590.20
2018-12-20T03:29:25.507Z,99594.66
2018-12-20T03:32:05.156Z,99590.58
2018-12-20T03:34:42.167Z,99584.80
2018-12-20T03:37:17.982Z,99585.28
2018-12-20T03:39:53.538Z,99580.86
2018-12-20T03:42:26.909Z,99570.88
2018-12-20T03:45:05.050Z,99582.32
2018-12-20T03:47:43.218Z,99581.42
2018-12-20T03:50:24.741Z,99577.06
2018-12-20T03:52:59.606Z,99583.53
2018-12-20T03:55:43.435Z,99579.53
2018-12-20T03:58:23.560Z,99584.23
2018-12-20T04:01:00.462Z,99581.19
2018-12-20T04:03:38.925Z,99586.38
2018-12-20T04:06:19.134Z,99573.34
2018-12-20T04:08:54.187Z,99580.92
2018-12-20T04:11:31.383Z,99562.77
2018-12-20T04:14:13.796Z,99586.17
2018-12-20T04:16:51.612Z,99584.01
2018-12-20T04:19:27.488Z,99589.45
2018-12-20T04:22:05.957Z,99598.27
2018-12-20T04:24:38.523Z,99590.13
2018-12-20T04:27:12.156Z,99597.55
2018-12-20T04:29:45.717Z,99597.57
2018-12-20T04:32:20.974Z,99592.92
2018-12-20T04:34:51.802Z,99593.56
2018-12-20T04:37:23.963Z,99590.54
2018-12-20T04:39:56.396Z,99593.73
2018-12-20T04:42:28.380Z,99589.61
2018-12-20T04:44:59.222Z,99590.90
2018-12-20T04:50:44.298Z,99588.77
2018-12-20T04:53:23.141Z,99599.44
2018-12-20T04:56:00.941Z,99601.73
2018-12-20T04:58:35.396Z,99601.69
2018-12-20T05:04:08.481Z,99600.49
2018-12-20T05:06:51.471Z,99599.61
2018-12-20T05:09:27.337Z,99583.67
2018-12-20T05:12:03.970Z,99600.78
2018-12-20T05:14:39.882Z,99599.67
2018-12-20T05:17:17.947Z,99605.88
2018-12-20T05:19:50.592Z,99601.64
2018-12-20T05:22:25.805Z,99597.69
2018-12-20T05:25:00.081Z,99600.09
2018-12-20T05:27:35.556Z,99598.02
2018-12-20T05:30:09.176Z,99601.84
2018-12-20T05:32:41.617Z,99589.66
2018-12-20T05:35:14.171Z,99588.39
2018-12-20T05:37:47.205Z,99576.38
2018-12-20T05:40:20.027Z,99588.97
2018-12-20T05:42:54.131Z,99594.25
2018-12-20T05:45:31.124Z,99592.56
2018-12-20T05:48:03.817Z,99594.71
2018-12-20T05:50:36.873Z,99595.45
2018-12-20T05:53:07.579Z,99593.75
2018-12-20T05:55:37.083Z,99598.40
2018-12-20T05:58:07.810Z,99605.17
2018-12-20T06:00:40.257Z,99596.52
2018-12-20T06:03:14.398Z,99608.91
2018-12-20T06:05:45.528Z,99604.05
2018-12-20T06:08:16.405Z,99616.23
2018-12-20T06:10:56.745Z,99611.02
2018-12-20T06:13:31.977Z,99619.38
2018-12-20T06:16:13.150Z,99621.53
2018-12-20T06:18:46.354Z,99619.35
2018-12-20T06:21:23.366Z,99623.56
2018-12-20T06:23:56.386Z,99615.33
2018-12-20T06:26:32.905Z,99627.83
2018-12-20T06:29:07.422Z,99632.14
2018-12-20T06:31:38.516Z,99627.51
2018-12-20T06:34:08.783Z,99633.17
2018-12-20T06:36:40.388Z,99626.84
2018-12-20T06:39:12.554Z,99628.02
2018-12-20T06:41:45.532Z,99627.70
2018-12-20T06:44:17.619Z,99642.77
2018-12-20T06:46:52.881Z,99631.64
2018-12-20T06:49:25.420Z,99631.12
2018-12-20T06:51:59.629Z,99637.16
2018-12-20T06:54:32.566Z,99631.77
2018-12-20T06:57:09.951Z,99633.46
2018-12-20T06:59:43.114Z,99636.59
2018-12-20T07:02:15.145Z,99636.53
2018-12-20T07:04:49.921Z,99633.29
2018-12-20T07:07:23.397Z,99632.30
2018-12-20T07:10:00.052Z,99611.67
2018-12-20T07:12:32.807Z,99639.89
2018-12-20T07:15:07.016Z,99637.41
2018-12-20T07:17:39.462Z,99628.11
2018-12-20T07:20:11.013Z,99644.20
2018-12-20T07:22:45.448Z,99637.39
2018-12-20T07:25:16.872Z,99650.62
2018-12-20T07:27:53.165Z,99640.33
2018-12-20T07:30:31.953Z,99650.00
2018-12-20T07:33:05.513Z,99656.67
2018-12-20T07:35:39.990Z,99655.30
2018-12-20T07:38:15.610Z,99661.62
2018-12-20T07:40:53.935Z,99659.95
2018-12-20T07:43:30.859Z,99653.97
2018-12-20T07:46:05.231Z,99659.95
2018-12-20T07:48:42.140Z,99666.45
2018-12-20T07:51:20.022Z,99662.84
2018-12-20T07:53:58.951Z,99658.69
2018-12-20T07:56:30.832Z,99665.19
2018-12-20T07:59:04.149Z,99661.06
2018-12-20T08:01:38.347Z,99660.20
2018-12-20T08:04:10.337Z,99662.89
2018-12-20T08:07:06.276Z,99665.39
2018-12-20T08:12:26.835Z,99679.20
2018-12-20T08:15:03.137Z,99672.39
2018-12-20T08:17:38.908Z,99686.38
2018-12-20T08:20:14.780Z,99683.55
2018-12-20T08:22:54.897Z,99684.90
2018-12-20T08:25:34.202Z,99687.70
2018-12-20T08:28:10.230Z,99686.05
2018-12-20T08:30:42.180Z,99697.53
2018-12-20T08:33:15.423Z,99695.84
2018-12-20T08:35:49.244Z,99700.67
2018-12-20T08:38:19.342Z,99705.66
2018-12-20T08:40:52.047Z,99707.12
2018-12-20T08:43:26.022Z,99710.09
2018-12-20T08:46:01.152Z,99709.63
2018-12-20T08:48:33.893Z,99715.77
2018-12-20T08:51:07.021Z,99728.73
2018-12-20T08:53:42.777Z,99737.19
2018-12-20T08:56:15.606Z,99734.44
2018-12-20T08:58:48.983Z,99734.30
2018-12-20T09:01:22.618Z,99741.10
2018-12-20T09:03:55.613Z,99730.38
2018-12-20T09:06:29.676Z,99728.45
2018-12-20T09:09:04.880Z,99741.11
2018-12-20T09:11:38.533Z,99741.45
2018-12-20T09:14:11.048Z,99749.26
2018-12-20T09:16:44.082Z,99750.70
2018-12-20T09:19:20.295Z,99745.70
2018-12-20T09:21:53.337Z,99743.26
2018-12-20T09:24:25.508Z,99740.84
2018-12-20T09:27:02.774Z,99745.03
2018-12-20T09:29:36.288Z,99741.22
2018-12-20T09:32:09.009Z,99748.12
2018-12-20T09:34:41.539Z,99749.56
2018-12-20T09:37:13.053Z,99743.52
2018-12-20T09:39:45.802Z,99752.94
2018-12-20T09:42:20.500Z,99754.56
2018-12-20T09:44:52.238Z,99740.99
2018-12-20T09:47:31.958Z,99748.17
2018-12-20T09:50:08.260Z,99761.92
2018-12-20T09:52:44.561Z,99756.66
2018-12-20T09:55:22.378Z,99754.92
2018-12-20T09:57:56.238Z,99739.59
2018-12-20T10:00:35.269Z,99751.31
2018-12-20T10:03:12.249Z,99736.29
2018-12-20T10:05:47.690Z,99753.21
2018-12-20T10:08:24.204Z,99758.64
2018-12-20T10:11:02.663Z,99754.27
2018-12-20T10:13:38.771Z,99754.97
2018-12-20T10:16:13.975Z,99749.92
2018-12-20T10:18:52.301Z,99752.23
2018-12-20T10:21:26.808Z,99740.64
2018-12-20T10:24:03.557Z,99741.27
2018-12-20T10:26:36.172Z,99731.72
2018-12-20T10:29:09.152Z,99726.16
2018-12-20T10:31:44.260Z,99728.83
2018-12-20T10:34:21.095Z,99722.39
2018-12-20T10:36:56.975Z,99728.48
2018-12-20T10:39:33.949Z,99721.05
2018-12-20T10:42:14.370Z,99721.88
2018-12-20T10:44:49.209Z,99696.98
2018-12-20T10:50:33.564Z,99719.27
2018-12-20T10:53:12.801Z,99715.20
2018-12-20T10:55:49.071Z,99718.02
2018-12-20T11:01:16.742Z,99710.59
2018-12-20T11:03:52.653Z,99715.07
2018-12-20T11:08:32.228Z,99696.17
2018-12-20T11:11:07.115Z,99701.23
2018-12-20T11:13:40.379Z,99713.02
2018-12-20T11:16:18.106Z,99712.00
2018-12-20T11:18:54.744Z,99719.02
2018-12-20T11:24:13.945Z,99703.61
2018-12-20T11:26:45.003Z,99701.79
2018-12-20T11:29:18.964Z,99686.34
2018-12-20T11:31:50.528Z,99696.88
2018-12-20T11:34:23.475Z,99689.44
2018-12-20T11:36:58.367Z,99687.61
2018-12-20T11:39:39.165Z,99675.55
2018-12-20T11:42:14.902Z,99693.16
2018-12-20T11:44:51.207Z,99668.36
2018-12-20T11:47:31.537Z,99670.30
2018-12-20T11:50:08.567Z,99671.78
2018-12-20T11:52:44.457Z,99672.87
2018-12-20T11:55:19.640Z,99669.21
2018-12-20T11:57:56.946Z,99670.41
2018-12-20T12:00:34.277Z,99669.85
2018-12-20T12:03:09.923Z,99664.50
2018-12-20T12:09:00.618Z,99670.03
2018-12-20T12:11:38.700Z,99670.25
2018-12-20T12:14:20.293Z,99676.52
2018-12-20T12:16:59.852Z,99674.36
2018-12-20T12:19:35.916Z,99669.31
2018-12-20T12:22:12.126Z,99653.70
2018-12-20T12:24:44.807Z,99651.12
2018-12-20T12:27:18.661Z,99667.27
2018-12-20T12:29:52.457Z,99665.95
2018-12-20T12:32:27.826Z,99664.22
2018-12-20T12:35:12.450Z,99667.89
2018-12-20T12:37:46.917Z,99668.63
2018-12-20T12:40:22.012Z,99672.56
2018-12-20T12:43:03.192Z,99662.39
2018-12-20T12:45:43.186Z,99670.19
2018-12-20T12:48:16.811Z,99669.11
2018-12-20T12:50:49.020Z,99674.75
2018-12-20T12:53:23.677Z,99665.75
2018-12-20T12:56:04.301Z,99647.88
2018-12-20T12:58:41.714Z,99658.37
2018-12-20T13:01:21.360Z,99643.89
2018-12-20T13:03:57.374Z,99666.74
2018-12-20T13:06:30.681Z,99666.87
2018-12-20T13:09:04.879Z,99661.67
2018-12-20T13:11:37.599Z,99665.86
2018-12-20T13:14:09.391Z,99713.80
2018-12-20T13:16:41.375Z,99676.47
2018-12-20T13:19:15.860Z,99670.09
2018-12-20T13:21:48.354Z,99676.30
2018-12-20T13:24:23.748Z,99672.13
2018-12-20T13:26:58.522Z,99673.66
2018-12-20T13:29:31.108Z,99680.01
2018-12-20T13:32:03.048Z,99678.64
2018-12-20T13:34:37.081Z,99669.98
2018-12-20T13:37:15.802Z,99680.34
2018-12-20T13:39:47.407Z,99673.77
2018-12-20T13:42:23.276Z,99676.30
2018-12-20T13:45:00.679Z,99675.44
2018-12-20T13:47:31.274Z,99674.63
2018-12-20T13:50:02.652Z,99676.05
2018-12-20T13:52:35.890Z,99686.77
2018-12-20T13:55:15.466Z,99668.77
2018-12-20T13:57:49.265Z,99666.55
2018-12-20T14:00:27.052Z,99691.00
2018-12-20T14:03:03.251Z,99681.42
2018-12-20T14:05:39.655Z,99670.46
2018-12-20T14:08:16.203Z,99662.71
2018-12-20T14:10:49.639Z,99684.30
2018-12-20T14:13:21.285Z,99696.70
2018-12-20T14:15:56.036Z,99681.36
2018-12-20T14:18:33.661Z,99625.77
2018-12-20T14:21:05.510Z,99686.56
2018-12-20T14:23:38.365Z,99686.45
2018-12-20T14:26:10.575Z,99686.84
2018-12-20T14:28:45.465Z,99693.09
2018-12-20T14:31:18.184Z,99693.33
2018-12-20T14:33:53.455Z,99700.34
2018-12-20T14:36:33.539Z,99698.82
2018-12-20T14:39:11.495Z,99699.62
2018-12-20T14:41:42.916Z,99699.48
2018-12-20T14:44:15.659Z,99718.31
2018-12-20T14:46:47.242Z,99702.75
2018-12-20T14:49:22.980Z,99704.81
2018-12-20T14:51:57.522Z,99700.44
2018-12-20T14:54:30.385Z,99706.08
2018-12-20T14:57:02.932Z,99703.55
2018-12-20T14:59:37.361Z,99701.02
2018-12-20T15:02:10.729Z,99702.70
2018-12-20T15:04:49.717Z,99686.02
2018-12-20T15:13:15.791Z,99703.74
2018-12-20T15:15:52.694Z,99700.11
2018-12-20T15:18:26.884Z,99714.32
2018-12-20T15:21:04.814Z,99705.64
2018-12-20T15:23:39.617Z,99705.45
2018-12-20T15:26:16.178Z,99706.08
2018-12-20T15:28:51.233Z,99714.27
2018-12-20T15:31:26.121Z,99707.81
2018-12-20T15:34:06.029Z,99716.00
2018-12-20T15:36:43.071Z,99708.86
2018-12-20T15:39:20.891Z,99716.70
2018-12-20T15:41:58.384Z,99700.64
2018-12-20T15:44:30.567Z,99724.41
2018-12-20T15:47:08.858Z,99731.87
2018-12-20T15:49:50.833Z,99721.29
2018-12-20T15:52:24.931Z,99733.05
2018-12-20T15:55:00.619Z,99742.30
2018-12-20T15:57:34.809Z,99725.53
2018-12-20T16:00:12.451Z,99729.59
2018-12-20T16:02:46.068Z,99744.28
2018-12-20T16:05:22.807Z,99747.14
2018-12-20T16:08:00.877Z,99754.23
2018-12-20T16:10:34.229Z,99750.91
2018-12-20T16:13:15.837Z,99751.53
2018-12-20T16:15:51.177Z,99759.51
2018-12-20T16:18:26.632Z,99744.59
2018-12-20T16:21:04.579Z,99752.58
2018-12-20T16:23:39.162Z,99751.17
2018-12-20T16:26:13.524Z,99765.94
2018-12-20T16:28:47.609Z,99755.30
2018-12-20T16:31:25.483Z,99759.98
2018-12-20T16:34:02.286Z,99764.53
2018-12-20T16:36:34.487Z,99768.28
2018-12-20T16:39:08.395Z,99784.66
2018-12-20T16:41:44.710Z,99784.36
2018-12-20T16:44:24.314Z,99790.86
2018-12-20T16:46:57.588Z,99793.98
2018-12-20T16:49:31.443Z,99797.78
2018-12-20T16:52:04.479Z,99783.44
2018-12-20T16:54:44.692Z,99786.23
2018-12-20T16:57:23.288Z,99800.24
2018-12-20T16:59:56.394Z,99798.31
2018-12-20T17:02:34.311Z,99803.16
2018-12-20T17:05:11.201Z,99796.65
2018-12-20T17:07:42.787Z,99792.39
2018-12-20T17:10:16.699Z,99802.31
2018-12-20T17:12:49.456Z,99799.70
2018-12-20T17:15:28.112Z,99813.09
2018-12-20T17:18:03.742Z,99810.09
2018-12-20T17:20:37.602Z,99803.66
2018-12-20T17:23:10.316Z,99782.84
2018-12-20T17:25:43.122Z,99805.53
2018-12-20T17:28:15.783Z,99811.25
2018-12-20T17:30:48.643Z,99811.37
2018-12-20T17:33:21.370Z,99809.25
2018-12-20T17:35:56.791Z,99813.45
2018-12-20T17:38:29.809Z,99798.86
2018-12-20T17:41:00.945Z,99817.63
2018-12-20T17:43:33.248Z,99820.00
2018-12-20T17:46:04.325Z,99823.58
2018-12-20T17:48:35.116Z,99816.35
2018-12-20T17:51:08.012Z,99831.40
2018-12-20T17:53:44.226Z,99828.49
2018-12-20T17:56:22.283Z,99824.22
2018-12-20T17:58:58.714Z,99825.78
2018-12-20T18:01:34.696Z,99865.50
2018-12-20T18:04:07.382Z,99827.80
2018-12-20T18:06:45.328Z,99779.70
2018-12-20T18:09:19.351Z,99834.89
2018-12-20T18:11:53.683Z,99825.63
2018-12-20T18:14:27.839Z,99831.04
2018-12-20T18:17:01.167Z,99828.16
2018-12-20T18:19:38.960Z,99711.72
2018-12-20T18:22:19.199Z,99831.72
2018-12-20T18:24:55.856Z,99825.08
2018-12-20T18:27:30.227Z,99696.05
2018-12-20T18:32:48.460Z,99753.28
2018-12-20T18:35:29.956Z,99826.63
2018-12-20T18:38:04.667Z,99807.27
2018-12-20T18:40:45.075Z,99832.95
2018-12-20T18:43:19.958Z,99827.63
2018-12-20T18:45:55.922Z,99831.97
2018-12-20T18:48:32.338Z,99843.98
2018-12-20T18:51:09.417Z,99845.59
2018-12-20T18:53:45.928Z,99848.55
2018-12-20T18:56:29.399Z,99846.13
2018-12-20T18:59:07.706Z,99851.12
2018-12-20T19:01:45.870Z,99851.31
2018-12-20T19:04:22.897Z,99850.33
2018-12-20T19:07:02.344Z,99855.25
2018-12-20T19:09:39.227Z,99854.61
2018-12-20T19:12:13.507Z,99853.73
2018-12-20T19:14:50.393Z,99854.42
2018-12-20T19:17:26.393Z,99859.45
2018-12-20T19:19:59.394Z,99858.19
2018-12-20T19:22:37.544Z,99848.50
2018-12-20T19:25:11.413Z,99850.88
2018-12-20T19:27:45.397Z,99842.08
2018-12-20T19:30:26.308Z,99854.42
2018-12-20T19:32:57.947Z,99849.92
2018-12-20T19:35:41.289Z,99853.77
2018-12-20T19:38:21.866Z,99837.61
2018-12-20T19:40:55.439Z,99855.37
2018-12-20T19:43:31.387Z,99854.38
2018-12-20T19:46:12.311Z,99852.73
2018-12-20T19:48:51.530Z,99850.08
2018-12-20T19:51:25.103Z,99845.23
2018-12-20T19:54:02.441Z,99851.75
2018-12-20T19:56:38.081Z,99854.28
2018-12-20T19:59:14.891Z,99851.97
2018-12-20T20:01:50.621Z,99850.97
2018-12-20T20:04:28.499Z,99855.22
2018-12-20T20:07:02.962Z,99858.03
2018-12-20T20:09:38.419Z,99855.42
2018-12-20T20:12:24.360Z,99844.99
2018-12-20T20:15:00.785Z,99842.36
2018-12-20T20:17:41.174Z,99842.86
2018-12-20T20:20:17.733Z,99846.58
2018-12-20T20:22:58.598Z,99851.61
2018-12-20T20:25:35.811Z,99883.80
2018-12-20T20:28:11.289Z,99849.14
2018-12-20T20:30:44.205Z,99836.92
2018-12-20T20:33:22.165Z,99829.11
2018-12-20T20:36:02.321Z,99839.94
2018-12-20T20:38:41.816Z,99837.42
2018-12-20T20:41:15.315Z,99845.42
2018-12-20T20:43:49.961Z,99844.09
2018-12-20T20:46:24.935Z,99836.58
2018-12-20T20:48:59.215Z,99837.38
2018-12-20T20:51:30.610Z,99837.72
2018-12-20T20:54:03.495Z,99844.55
2018-12-20T20:56:40.393Z,99835.89
2018-12-20T20:59:14.492Z,99831.49
2018-12-20T21:01:46.547Z,99827.72
2018-12-20T21:04:19.147Z,99830.80
2018-12-20T21:06:53.788Z,99823.33
2018-12-20T21:09:26.579Z,99752.12
2018-12-20T21:12:02.744Z,99831.78
2018-12-20T21:14:39.653Z,99823.83
2018-12-20T21:17:12.810Z,99784.70
2018-12-20T21:19:44.878Z,99823.17
2018-12-20T21:22:19.819Z,99815.52
2018-12-20T21:24:53.117Z,99830.25
2018-12-20T21:27:25.580Z,99835.94
2018-12-20T21:29:57.547Z,99837.31
2018-12-20T21:32:33.065Z,99835.30
2018-12-20T21:35:10.288Z,99834.09
2018-12-20T21:37:43.603Z,99842.22
2018-12-20T21:40:21.528Z,99835.39
2018-12-20T21:42:56.904Z,99830.54
2018-12-20T21:48:13.084Z,99822.98
2018-12-20T21:50:49.424Z,99822.58
2018-12-20T21:53:21.754Z,99822.95
2018-12-20T21:55:55.084Z,99836.96
2018-12-20T21:58:32.646Z,99826.53
2018-12-20T22:01:10.389Z,99826.81
2018-12-20T22:03:46.018Z,99876.09
2018-12-20T22:06:27.147Z,99824.27
2018-12-20T22:09:02.318Z,99823.62
2018-12-20T22:11:36.324Z,99812.25
2018-12-20T22:14:10.332Z,99821.59
2018-12-20T22:16:49.112Z,99824.22
2018-12-20T22:19:24.075Z,99825.73
2018-12-20T22:22:00.838Z,99832.77
2018-12-20T22:24:33.389Z,99829.77
2018-12-20T22:27:07.292Z,99830.39
2018-12-20T22:29:40.448Z,99835.52
2018-12-20T22:32:14.226Z,99830.41
2018-12-20T22:34:48.795Z,99829.75
2018-12-20T22:37:23.578Z,99830.89
2018-12-20T22:39:58.636Z,99826.59
2018-12-20T22:42:36.496Z,99834.59
2018-12-20T22:45:14.885Z,99841.87
2018-12-20T22:47:48.829Z,99840.28
2018-12-20T22:50:22.748Z,99839.30
2018-12-20T22:52:56.582Z,99835.55
2018-12-20T22:55:30.282Z,99835.18
2018-12-20T22:58:10.822Z,99830.31
2018-12-20T23:00:59.086Z,99840.87
2018-12-20T23:03:37.771Z,99833.33
2018-12-20T23:06:15.755Z,99849.64
2018-12-20T23:08:57.333Z,99841.13
2018-12-20T23:11:34.398Z,99833.66
2018-12-20T23:14:11.412Z,99823.56
2018-12-20T23:16:53.459Z,99820.31
2018-12-20T23:19:24.617Z,99824.27
2018-12-20T23:22:03.438Z,99815.66
2018-12-20T23:24:40.751Z,99812.25
2018-12-20T23:27:17.294Z,99806.87
2018-12-20T23:29:56.200Z,99810.52
2018-12-20T23:32:31.760Z,99807.50
2018-12-20T23:35:09.514Z,99802.14
2018-12-20T23:37:48.593Z,99802.17
2018-12-20T23:40:34.073Z,99802.25
2018-12-20T23:43:08.725Z,99849.92
2018-12-20T23:45:44.507Z,99799.83
2018-12-20T23:48:19.736Z,99748.67
2018-12-20T23:50:54.413Z,99799.11
2018-12-20T23:53:34.528Z,99810.42
2018-12-20T23:56:11.136Z,99799.30
2018-12-20T23:58:49.147Z,99806.33
